createdAt,value
2023-10-23T00:01:01.005Z,3.75
2023-10-23T00:03:29.570Z,4.20
2023-10-23T00:05:57.205Z,2.67
2023-10-23T00:08:24.883Z,5.03
2023-10-23T00:10:52.268Z,5.05
2023-10-23T00:13:19.923Z,4.45
2023-10-23T00:15:47.716Z,6.13
2023-10-23T00:18:15.368Z,1.90
2023-10-23T00:20:42.934Z,3.50
2023-10-23T00:23:10.390Z,1.95
2023-10-23T00:25:37.868Z,3.17
2023-10-23T00:28:05.613Z,4.38
2023-10-23T00:30:37.238Z,2.55
2023-10-23T00:33:05.118Z,8.07
2023-10-23T00:35:33.557Z,2.78
2023-10-23T00:38:01.467Z,1.33
2023-10-23T00:40:28.985Z,5.20
2023-10-23T00:42:56.781Z,3.15
2023-10-23T00:45:24.614Z,2.15
2023-10-23T00:47:52.253Z,3.72
2023-10-23T00:50:19.946Z,3.60
2023-10-23T00:52:47.457Z,5.05
2023-10-23T00:55:15.761Z,4.03
2023-10-23T00:57:44.554Z,3.60
2023-10-23T01:00:12.772Z,2.45
2023-10-23T01:02:40.427Z,1.77
2023-10-23T01:05:08.392Z,2.97
2023-10-23T01:07:35.880Z,2.28
2023-10-23T01:10:04.295Z,2.30
2023-10-23T01:12:32.005Z,0.98
2023-10-23T01:14:59.652Z,3.60
2023-10-23T01:17:27.256Z,1.40
2023-10-23T01:19:55.033Z,2.38
2023-10-23T01:22:22.528Z,4.05
2023-10-23T01:24:51.500Z,2.08
2023-10-23T01:27:19.120Z,2.08
2023-10-23T01:29:46.965Z,4.43
2023-10-23T01:32:14.771Z,2.80
2023-10-23T01:34:42.421Z,4.57
2023-10-23T01:37:09.950Z,1.65
2023-10-23T01:39:37.491Z,1.27
2023-10-23T01:42:05.303Z,4.40
2023-10-23T01:44:32.862Z,3.97
2023-10-23T01:47:00.372Z,2.58
2023-10-23T01:49:27.862Z,1.45
2023-10-23T01:51:56.334Z,3.05
2023-10-23T01:54:23.961Z,1.77
2023-10-23T01:56:51.411Z,2.40
2023-10-23T01:59:19.105Z,4.20
2023-10-23T02:01:46.799Z,3.38
2023-10-23T02:04:14.625Z,3.83
2023-10-23T02:06:42.480Z,4.75
2023-10-23T02:09:10.170Z,1.80
2023-10-23T02:11:37.682Z,2.65
2023-10-23T02:14:05.358Z,2.53
2023-10-23T02:16:32.911Z,4.35
2023-10-23T02:19:00.656Z,4.20
2023-10-23T02:21:29.150Z,3.30
2023-10-23T02:23:57.400Z,3.95
2023-10-23T02:26:26.224Z,4.15
2023-10-23T02:28:53.844Z,4.43
2023-10-23T02:31:21.433Z,2.00
2023-10-23T02:33:49.133Z,2.13
2023-10-23T02:36:16.975Z,5.28
2023-10-23T02:38:44.846Z,3.47
2023-10-23T02:41:12.297Z,4.57
2023-10-23T02:43:39.807Z,1.48
2023-10-23T02:46:07.361Z,2.60
2023-10-23T02:48:34.949Z,5.70
2023-10-23T02:51:02.545Z,2.92
2023-10-23T02:53:31.662Z,2.08
2023-10-23T02:55:59.228Z,3.28
2023-10-23T02:58:26.861Z,5.88
2023-10-23T03:00:54.385Z,3.30
2023-10-23T03:03:22.114Z,5.80
2023-10-23T03:05:49.732Z,2.92
2023-10-23T03:08:17.298Z,3.28
2023-10-23T03:10:45.267Z,7.70
2023-10-23T03:13:13.057Z,3.13
2023-10-23T03:15:41.965Z,4.63
2023-10-23T03:18:09.832Z,4.35
2023-10-23T03:20:38.245Z,4.80
2023-10-23T03:23:05.808Z,3.40
2023-10-23T03:25:33.329Z,5.07
2023-10-23T03:28:01.015Z,3.58
2023-10-23T03:30:28.672Z,3.92
2023-10-23T03:32:56.267Z,3.95
2023-10-23T03:35:23.902Z,6.32
2023-10-23T03:37:54.015Z,4.38
2023-10-23T03:40:21.899Z,3.42
2023-10-23T03:42:53.565Z,7.07
2023-10-23T03:45:21.189Z,4.10
2023-10-23T03:47:49.149Z,5.55
2023-10-23T03:50:16.739Z,4.70
2023-10-23T03:52:44.189Z,3.15
2023-10-23T03:55:11.738Z,3.72
2023-10-23T03:57:39.174Z,5.32
2023-10-23T04:00:07.435Z,3.70
2023-10-23T04:02:53.629Z,6.45
2023-10-23T04:05:21.154Z,3.67
2023-10-23T04:07:48.570Z,4.40
2023-10-23T04:10:16.054Z,4.20
2023-10-23T04:12:43.684Z,4.82
2023-10-23T04:15:11.457Z,4.28
2023-10-23T04:17:39.093Z,4.35
2023-10-23T04:20:08.049Z,5.57
2023-10-23T04:22:35.661Z,2.05
2023-10-23T04:25:03.566Z,3.53
2023-10-23T04:27:32.345Z,4.05
2023-10-23T04:30:01.596Z,5.40
2023-10-23T04:32:32.447Z,3.58
2023-10-23T04:35:00.824Z,3.15
2023-10-23T04:37:28.830Z,2.53
2023-10-23T04:39:56.397Z,4.93
2023-10-23T04:42:23.996Z,1.98
2023-10-23T04:44:51.469Z,3.13
2023-10-23T04:47:18.956Z,1.50
2023-10-23T04:49:49.281Z,3.00
2023-10-23T04:52:18.350Z,4.03
2023-10-23T04:54:46.062Z,4.90
2023-10-23T04:57:13.785Z,5.00
2023-10-23T04:59:41.468Z,3.35
2023-10-23T05:02:09.072Z,5.05
2023-10-23T05:04:36.564Z,6.47
2023-10-23T05:07:04.266Z,4.35
2023-10-23T05:09:32.241Z,3.45
2023-10-23T05:11:59.857Z,2.03
2023-10-23T05:14:27.657Z,3.80
2023-10-23T05:16:55.136Z,4.28
2023-10-23T05:19:23.584Z,3.20
2023-10-23T05:21:51.168Z,7.30
2023-10-23T05:24:18.763Z,4.82
2023-10-23T05:26:46.263Z,6.35
2023-10-23T05:29:13.808Z,5.80
2023-10-23T05:31:41.347Z,7.80
2023-10-23T05:34:08.833Z,3.83
2023-10-23T05:36:36.342Z,1.65
2023-10-23T05:39:04.034Z,6.03
2023-10-23T05:41:31.557Z,6.60
2023-10-23T05:43:58.994Z,3.38
2023-10-23T05:46:26.747Z,3.47
2023-10-23T05:48:54.386Z,7.43
2023-10-23T05:51:23.344Z,4.15
2023-10-23T05:53:51.509Z,5.10
2023-10-23T05:56:19.028Z,2.85
2023-10-23T05:58:48.583Z,3.53
2023-10-23T06:01:16.249Z,3.85
2023-10-23T06:03:44.030Z,3.60
2023-10-23T06:06:14.276Z,6.18
2023-10-23T06:08:41.997Z,7.28
2023-10-23T06:11:11.450Z,5.78
2023-10-23T06:13:39.776Z,5.13
2023-10-23T06:16:08.836Z,5.55
2023-10-23T06:18:37.742Z,5.78
2023-10-23T06:21:07.267Z,2.85
2023-10-23T06:26:12.874Z,6.53
2023-10-23T06:28:40.435Z,4.13
2023-10-23T06:31:09.431Z,5.75
2023-10-23T06:33:40.426Z,3.70
2023-10-23T06:36:09.340Z,3.80
2023-10-23T06:38:37.912Z,5.55
2023-10-23T06:41:06.884Z,7.85
2023-10-23T06:43:35.806Z,4.30
2023-10-23T06:46:04.984Z,4.88
2023-10-23T06:48:32.926Z,7.32
2023-10-23T06:51:01.158Z,6.03
2023-10-23T06:53:28.855Z,5.57
2023-10-23T06:55:57.273Z,3.97
2023-10-23T06:58:24.954Z,8.63
2023-10-23T07:00:52.747Z,9.85
2023-10-23T07:03:21.454Z,3.88
2023-10-23T07:05:49.152Z,3.78
2023-10-23T07:08:16.605Z,5.72
2023-10-23T07:10:44.236Z,4.35
2023-10-23T07:13:22.080Z,4.38
2023-10-23T07:15:51.674Z,5.00
2023-10-23T07:18:19.913Z,4.22
2023-10-23T07:21:03.463Z,6.53
2023-10-23T07:23:31.075Z,5.78
2023-10-23T07:26:02.069Z,4.93
2023-10-23T07:28:29.654Z,3.45
2023-10-23T07:30:57.525Z,6.47
2023-10-23T07:33:24.992Z,4.20
2023-10-23T07:36:01.171Z,3.63
2023-10-23T07:38:29.071Z,3.75
2023-10-23T07:40:56.649Z,3.78
2023-10-23T07:43:24.308Z,7.50
2023-10-23T07:45:57.294Z,7.38
2023-10-23T07:48:32.442Z,4.50
2023-10-23T07:51:00.753Z,6.20
2023-10-23T07:53:28.783Z,5.20
2023-10-23T07:55:56.278Z,8.02
2023-10-23T07:58:23.735Z,8.77
2023-10-23T08:00:55.477Z,4.93
2023-10-23T08:05:50.456Z,4.40
2023-10-23T08:08:17.932Z,5.95
2023-10-23T08:10:45.633Z,4.68
2023-10-23T08:13:13.347Z,5.63
2023-10-23T08:15:43.380Z,6.00
2023-10-23T08:18:18.963Z,4.85
2023-10-23T08:20:53.827Z,5.47
2023-10-23T08:23:21.417Z,5.85
2023-10-23T08:25:48.989Z,2.33
2023-10-23T08:28:16.561Z,3.30
2023-10-23T08:30:44.526Z,4.00
2023-10-23T08:33:12.072Z,8.80
2023-10-23T08:35:39.705Z,4.13
2023-10-23T08:38:07.217Z,7.18
2023-10-23T08:40:35.401Z,6.55
2023-10-23T08:43:02.957Z,5.43
2023-10-23T08:45:30.592Z,5.25
2023-10-23T08:47:58.770Z,4.03
2023-10-23T08:50:26.894Z,4.63
2023-10-23T08:53:00.035Z,3.72
2023-10-23T08:55:30.292Z,4.78
2023-10-23T08:57:59.429Z,6.18
2023-10-23T09:00:27.153Z,4.85
2023-10-23T09:02:54.845Z,4.63
2023-10-23T09:05:22.750Z,2.90
2023-10-23T09:07:50.384Z,3.47
2023-10-23T09:10:17.964Z,5.82
2023-10-23T09:12:47.190Z,5.20
2023-10-23T09:17:52.693Z,5.70
2023-10-23T09:22:57.880Z,5.32
2023-10-23T09:25:26.591Z,3.13
2023-10-23T09:27:54.378Z,3.90
2023-10-23T09:30:23.183Z,5.45
2023-10-23T09:32:53.386Z,6.45
2023-10-23T09:35:22.217Z,4.22
2023-10-23T09:37:49.801Z,4.40
2023-10-23T09:40:18.639Z,6.40
2023-10-23T09:42:46.617Z,2.75
2023-10-23T09:45:14.400Z,4.22
2023-10-23T09:47:41.995Z,5.70
2023-10-23T09:50:10.108Z,5.15
2023-10-23T09:52:38.121Z,3.95
2023-10-23T09:57:46.624Z,5.00
2023-10-23T10:02:48.267Z,4.97
2023-10-23T10:05:20.704Z,6.65
2023-10-23T10:10:29.341Z,4.28
2023-10-23T10:12:58.162Z,5.10
2023-10-23T10:15:26.283Z,6.75
2023-10-23T10:17:54.165Z,5.75
2023-10-23T10:20:23.197Z,3.33
2023-10-23T10:22:57.685Z,5.53
2023-10-23T10:25:25.898Z,3.58
2023-10-23T10:27:59.206Z,5.13
2023-10-23T10:30:45.326Z,3.60
2023-10-23T10:34:24.349Z,4.65
2023-10-23T10:36:45.172Z,4.90
2023-10-23T10:39:07.224Z,6.30
2023-10-23T10:41:37.135Z,6.07
2023-10-23T10:44:11.593Z,5.05
2023-10-23T10:46:41.662Z,4.35
2023-10-23T10:49:09.386Z,6.38
2023-10-23T10:51:36.956Z,5.70
2023-10-23T10:54:07.722Z,4.75
2023-10-23T10:56:35.692Z,3.47
2023-10-23T10:59:04.743Z,6.20
2023-10-23T11:01:33.426Z,4.50
2023-10-23T11:04:01.853Z,5.03
2023-10-23T11:06:30.970Z,3.63
2023-10-23T11:09:00.658Z,3.05
2023-10-23T11:11:29.457Z,4.15
2023-10-23T11:14:03.473Z,2.63
2023-10-23T11:16:31.910Z,4.43
2023-10-23T11:18:59.528Z,4.43
2023-10-23T11:21:27.448Z,5.32
2023-10-23T11:23:57.482Z,3.50
2023-10-23T11:26:25.666Z,6.50
2023-10-23T11:28:53.246Z,2.58
2023-10-23T11:31:23.183Z,2.97
2023-10-23T11:33:57.357Z,3.30
2023-10-23T11:36:29.311Z,4.72
2023-10-23T11:38:58.229Z,2.20
2023-10-23T11:41:29.041Z,3.95
2023-10-23T11:44:02.342Z,5.55
2023-10-23T11:46:30.338Z,4.28
2023-10-23T11:48:57.991Z,5.78
2023-10-23T11:51:25.895Z,5.53
2023-10-23T11:53:53.364Z,4.20
2023-10-23T11:56:20.793Z,5.72
2023-10-23T11:58:48.400Z,4.80
2023-10-23T12:01:15.974Z,7.53
2023-10-23T12:03:43.474Z,3.85
2023-10-23T12:06:11.304Z,5.32
2023-10-23T12:08:38.855Z,4.70
2023-10-23T12:11:06.472Z,7.25
2023-10-23T12:13:34.152Z,5.40
2023-10-23T12:16:01.853Z,5.55
2023-10-23T12:18:29.651Z,6.40
2023-10-23T12:20:59.487Z,5.40
2023-10-23T12:23:27.334Z,6.35
2023-10-23T12:25:56.037Z,7.60
2023-10-23T12:28:23.780Z,5.90
2023-10-23T12:30:51.378Z,6.35
2023-10-23T12:33:22.622Z,4.82
2023-10-23T12:35:52.850Z,3.92
2023-10-23T12:38:20.609Z,5.95
2023-10-23T12:40:50.180Z,5.45
2023-10-23T12:43:17.780Z,4.63
2023-10-23T12:45:45.779Z,9.63
2023-10-23T12:48:13.306Z,5.30
2023-10-23T12:50:40.985Z,4.40
2023-10-23T12:53:10.007Z,6.18
2023-10-23T12:55:37.949Z,2.80
2023-10-23T12:58:06.592Z,5.75
2023-10-23T13:00:34.529Z,5.45
2023-10-23T13:03:02.104Z,5.90
2023-10-23T13:05:29.819Z,4.53
2023-10-23T13:07:57.351Z,5.63
2023-10-23T13:10:25.206Z,4.43
2023-10-23T13:12:52.839Z,4.07
2023-10-23T13:15:20.445Z,6.13
2023-10-23T13:17:48.119Z,4.57
2023-10-23T13:21:29.057Z,3.28
2023-10-23T13:23:04.161Z,3.58
2023-10-23T13:25:31.741Z,4.63
2023-10-23T13:27:59.643Z,5.90
2023-10-23T13:30:27.295Z,5.72
2023-10-23T13:32:54.877Z,8.20
2023-10-23T13:35:22.344Z,5.15
2023-10-23T13:37:49.869Z,5.72
2023-10-23T13:40:17.429Z,4.80
2023-10-23T13:42:46.143Z,5.40
2023-10-23T13:45:16.632Z,7.20
2023-10-23T13:47:45.250Z,5.45
2023-10-23T13:50:12.863Z,2.80
2023-10-23T13:52:42.184Z,4.55
2023-10-23T13:55:09.990Z,3.17
2023-10-23T13:57:37.803Z,4.57
2023-10-23T14:00:05.864Z,6.65
2023-10-23T14:02:49.639Z,5.78
2023-10-23T14:05:17.306Z,3.80
2023-10-23T14:07:46.000Z,6.18
2023-10-23T14:10:21.417Z,4.82
2023-10-23T14:12:52.860Z,4.28
2023-10-23T14:15:21.635Z,6.85
2023-10-23T14:17:49.392Z,4.20
2023-10-23T14:20:17.396Z,4.82
2023-10-23T14:22:44.890Z,7.05
2023-10-23T14:25:12.498Z,5.18
2023-10-23T14:27:42.147Z,3.08
2023-10-23T14:30:10.331Z,3.97
2023-10-23T14:32:40.348Z,5.50
2023-10-23T14:35:08.969Z,5.25
2023-10-23T14:37:36.652Z,3.92
2023-10-23T14:40:04.812Z,2.13
2023-10-23T14:42:33.183Z,2.88
2023-10-23T14:45:00.810Z,3.97
2023-10-23T14:47:28.372Z,4.90
2023-10-23T14:49:56.127Z,2.30
2023-10-23T14:52:23.949Z,6.47
2023-10-23T14:54:55.701Z,7.68
2023-10-23T14:57:23.301Z,3.42
2023-10-23T14:59:50.936Z,3.75
2023-10-23T15:02:18.545Z,3.05
2023-10-23T15:04:46.331Z,7.35
2023-10-23T15:07:14.103Z,4.85
2023-10-23T15:09:41.765Z,4.40
2023-10-23T15:12:09.632Z,5.70
2023-10-23T15:14:37.156Z,7.18
2023-10-23T15:17:05.204Z,7.22
2023-10-23T15:19:32.787Z,5.72
2023-10-23T15:22:00.296Z,5.97
2023-10-23T15:24:27.892Z,6.55
2023-10-23T15:26:55.476Z,5.53
2023-10-23T15:29:23.039Z,6.65
2023-10-23T15:31:50.660Z,4.50
2023-10-23T15:34:18.737Z,6.55
2023-10-23T15:36:46.704Z,5.50
2023-10-23T15:39:14.216Z,4.20
2023-10-23T15:41:41.753Z,3.95
2023-10-23T15:44:09.234Z,1.42
2023-10-23T15:46:36.888Z,1.27
2023-10-23T15:49:04.569Z,1.17
2023-10-23T15:51:32.198Z,1.38
2023-10-23T15:53:59.687Z,2.33
2023-10-23T15:56:27.534Z,1.48
2023-10-23T15:58:55.051Z,1.08
2023-10-23T16:01:22.679Z,0.90
2023-10-23T16:03:52.640Z,2.13
2023-10-23T16:06:20.291Z,0.90
2023-10-23T16:08:47.860Z,2.30
2023-10-23T16:11:15.371Z,2.85
2023-10-23T16:13:43.243Z,1.65
2023-10-23T16:16:17.084Z,1.10
2023-10-23T16:18:46.350Z,1.77
2023-10-23T16:21:15.652Z,2.63
2023-10-23T16:23:43.715Z,2.75
2023-10-23T16:26:11.931Z,1.70
2023-10-23T16:28:40.244Z,1.67
2023-10-23T16:31:09.963Z,0.50
2023-10-23T16:33:37.722Z,0.82
2023-10-23T16:36:05.671Z,1.33
2023-10-23T16:38:33.260Z,1.00
2023-10-23T16:41:00.923Z,1.55
2023-10-23T16:43:28.626Z,0.60
2023-10-23T16:45:56.227Z,0.52
2023-10-23T16:48:24.851Z,0.80
2023-10-23T16:50:52.498Z,0.68
2023-10-23T16:53:20.059Z,0.73
2023-10-23T16:55:53.449Z,3.00
2023-10-23T16:58:24.873Z,1.52
2023-10-23T17:03:22.025Z,2.25
2023-10-23T17:05:50.061Z,0.63
2023-10-23T17:08:17.592Z,1.10
2023-10-23T17:10:45.129Z,3.25
2023-10-23T17:13:13.017Z,0.55
2023-10-23T17:15:45.101Z,2.03
2023-10-23T17:18:12.823Z,2.75
2023-10-23T17:20:42.170Z,1.13
2023-10-23T17:23:09.808Z,0.45
2023-10-23T17:25:41.920Z,3.47
2023-10-23T17:28:09.731Z,1.08
2023-10-23T17:30:38.512Z,1.23
2023-10-23T17:33:08.006Z,2.10
2023-10-23T17:35:36.436Z,0.85
2023-10-23T17:38:04.430Z,1.23
2023-10-23T17:40:39.523Z,1.25
2023-10-23T17:43:07.066Z,1.08
2023-10-23T17:45:35.072Z,0.82
2023-10-23T17:48:03.069Z,1.20
2023-10-23T17:50:38.560Z,1.10
2023-10-23T17:53:06.651Z,2.13
2023-10-23T17:55:44.111Z,0.65
2023-10-23T17:58:13.326Z,0.70
2023-10-23T18:00:41.462Z,0.30
2023-10-23T18:03:09.278Z,0.32
2023-10-23T18:05:37.015Z,0.22
2023-10-23T18:08:04.745Z,0.00
2023-10-23T18:10:32.480Z,0.13
2023-10-23T18:13:00.475Z,0.45
2023-10-23T18:15:28.767Z,0.52
2023-10-23T18:17:57.098Z,0.47
2023-10-23T18:20:24.833Z,1.05
2023-10-23T18:22:54.439Z,0.20
2023-10-23T18:25:22.261Z,0.30
2023-10-23T18:27:49.901Z,0.50
2023-10-23T18:30:17.736Z,0.95
2023-10-23T18:32:45.389Z,0.73
2023-10-23T18:35:13.069Z,0.38
2023-10-23T18:37:40.696Z,0.30
2023-10-23T18:40:08.843Z,1.00
2023-10-23T18:42:37.816Z,0.15
2023-10-23T18:45:06.735Z,1.02
2023-10-23T18:47:35.262Z,0.60
2023-10-23T18:50:07.006Z,0.32
2023-10-23T18:52:35.072Z,0.13
2023-10-23T18:55:04.207Z,0.65
2023-10-23T18:57:32.032Z,0.60
2023-10-23T19:00:01.830Z,0.32
2023-10-23T19:02:32.668Z,0.30
2023-10-23T19:05:00.349Z,0.50
2023-10-23T19:07:27.972Z,0.40
2023-10-23T19:09:57.751Z,0.22
2023-10-23T19:12:25.683Z,0.52
2023-10-23T19:14:54.119Z,0.32
2023-10-23T19:17:36.836Z,0.30
2023-10-23T19:20:11.076Z,0.73
2023-10-23T19:22:39.747Z,0.20
2023-10-23T19:25:08.217Z,0.13
2023-10-23T19:27:36.154Z,0.20
2023-10-23T19:30:05.512Z,1.35
2023-10-23T19:32:33.411Z,0.22
2023-10-23T19:35:01.288Z,0.00
2023-10-23T19:37:29.291Z,0.47
2023-10-23T19:39:57.267Z,0.40
2023-10-23T19:42:27.323Z,0.60
2023-10-23T19:44:55.132Z,1.35
2023-10-23T19:47:22.956Z,1.33
2023-10-23T19:49:50.893Z,0.30
2023-10-23T19:52:19.479Z,0.45
2023-10-23T19:54:48.371Z,0.38
2023-10-23T19:57:17.953Z,0.28
2023-10-23T19:59:45.655Z,0.40
2023-10-23T20:02:13.258Z,0.77
2023-10-23T20:04:40.894Z,1.92
2023-10-23T20:07:08.881Z,0.60
2023-10-23T20:09:36.589Z,0.65
2023-10-23T20:12:05.263Z,0.95
2023-10-23T20:14:32.795Z,0.30
2023-10-23T20:17:00.474Z,0.75
2023-10-23T20:19:28.225Z,0.73
2023-10-23T20:21:58.543Z,1.60
2023-10-23T20:24:26.046Z,1.48
2023-10-23T20:26:53.632Z,0.93
2023-10-23T20:29:21.267Z,0.28
2023-10-23T20:31:48.946Z,1.38
2023-10-23T20:34:16.534Z,0.40
2023-10-23T20:36:44.185Z,0.52
2023-10-23T20:39:11.675Z,1.73
2023-10-23T20:41:39.180Z,0.52
2023-10-23T20:44:06.755Z,0.25
2023-10-23T20:46:34.316Z,0.40
2023-10-23T20:49:02.758Z,0.20
2023-10-23T20:51:30.380Z,0.17
2023-10-23T20:53:58.835Z,0.40
2023-10-23T20:56:26.332Z,0.85
2023-10-23T20:58:55.388Z,0.30
2023-10-23T21:01:23.166Z,0.25
2023-10-23T21:03:51.786Z,0.35
2023-10-23T21:06:20.671Z,0.30
2023-10-23T21:08:48.247Z,0.17
2023-10-23T21:11:15.759Z,0.10
2023-10-23T21:13:43.268Z,0.10
2023-10-23T21:16:11.010Z,0.17
2023-10-23T21:18:38.514Z,0.17
2023-10-23T21:21:06.207Z,0.10
2023-10-23T21:23:33.828Z,0.30
2023-10-23T21:26:05.321Z,0.10
2023-10-23T21:28:33.124Z,0.30
2023-10-23T21:31:00.970Z,0.00
2023-10-23T21:33:29.867Z,0.08
2023-10-23T21:35:57.484Z,0.22
2023-10-23T21:38:24.972Z,0.00
2023-10-23T21:40:53.101Z,0.03
2023-10-23T21:43:20.556Z,0.00
2023-10-23T21:45:53.520Z,1.13
2023-10-23T21:48:27.406Z,0.00
2023-10-23T21:50:54.875Z,0.03
2023-10-23T21:53:22.615Z,0.45
2023-10-23T21:55:50.878Z,0.10
2023-10-23T21:58:18.826Z,0.25
2023-10-23T22:00:46.661Z,0.45
2023-10-23T22:03:14.298Z,0.40
2023-10-23T22:05:42.131Z,0.30
2023-10-23T22:08:09.972Z,0.00
2023-10-23T22:10:37.964Z,1.13
2023-10-23T22:13:05.800Z,2.50
2023-10-23T22:15:33.362Z,0.47
2023-10-23T22:18:00.817Z,0.30
2023-10-23T22:20:28.261Z,0.85
2023-10-23T22:22:55.665Z,0.38
2023-10-23T22:25:23.208Z,0.10
2023-10-23T22:27:50.862Z,0.40
2023-10-23T22:30:18.432Z,0.55
2023-10-23T22:32:51.769Z,0.15
2023-10-23T22:35:24.708Z,0.20
2023-10-23T22:38:07.106Z,0.30
2023-10-23T22:40:37.612Z,0.00
2023-10-23T22:43:05.267Z,0.60
2023-10-23T22:45:33.091Z,0.50
2023-10-23T22:48:02.638Z,0.52
2023-10-23T22:50:30.596Z,0.20
2023-10-23T22:52:58.306Z,0.15
2023-10-23T22:55:26.128Z,0.17
2023-10-23T22:57:54.300Z,0.15
2023-10-23T23:00:22.199Z,0.52
2023-10-23T23:02:49.938Z,0.30
2023-10-23T23:05:17.838Z,0.90
2023-10-23T23:07:45.743Z,1.30
2023-10-23T23:10:13.993Z,0.40
2023-10-23T23:12:41.727Z,0.20
2023-10-23T23:15:09.666Z,0.25
2023-10-23T23:20:15.248Z,0.73
2023-10-23T23:22:42.838Z,0.70
2023-10-23T23:25:10.345Z,0.30
2023-10-23T23:27:37.926Z,0.30
2023-10-23T23:30:05.978Z,0.50
2023-10-23T23:32:33.647Z,0.82
2023-10-23T23:35:01.130Z,0.70
2023-10-23T23:37:30.791Z,0.30
2023-10-23T23:39:58.386Z,1.02
2023-10-23T23:42:26.679Z,0.75
2023-10-23T23:44:54.245Z,0.50
2023-10-23T23:47:21.819Z,0.50
2023-10-23T23:49:49.343Z,0.50
2023-10-23T23:52:16.839Z,0.45
2023-10-23T23:54:44.319Z,0.10
2023-10-23T23:57:12.360Z,1.10
2023-10-23T23:59:40.634Z,0.10
